ADDS METAR Data INFO
IDs: Format: Raw Decoded Include TAF

Data at: 0247 UTC 17 Jan 2018

KICT 170153Z 34003KT 10SM CLR M11/M15 A3070 RMK AO2 SLP425 T11111150
KICT 170053Z 35005KT 10SM CLR M11/M15 A3071 RMK AO2 SLP427 T11061150
KICT 162353Z 36007KT 10SM CLR M11/M15 A3070 RMK AO2 SLP426 T11061150 11083 21122 56008
KICT 162253Z 36007KT 10SM FEW025 M09/M14 A3070 RMK AO2 SLP425 T10941144
KICT 162153Z 35012KT 10SM FEW025 M09/M14 A3071 RMK AO2 SLP429 T10891144
KICT 162053Z 35010KT 10SM SCT024 M09/M14 A3073 RMK AO2 SLP433 T10891144 56023
KICT 161953Z 34008KT 10SM SCT022 M10/M16 A3073 RMK AO2 SLP436 T11001156
KICT 161903Z 33006KT 10SM BKN022 M11/M16 A3076 RMK AO2 T11111161
KICT 161853Z 35008G17KT 10SM SCT022 M11/M16 A3076 RMK AO2 SLP444 T11111161
KICT 161753Z 35009KT 10SM SCT020 M12/M18 A3080 RMK AO2 SLP458 T11221178 11122 21161 50004
KICT 161653Z 33013KT 10SM FEW020 M13/M18 A3081 RMK AO2 SLP464 T11331183
KICT 161553Z 36014KT 10SM FEW020 M14/M19 A3080 RMK AO2 SLP462 T11441194
KICT 161453Z 35015KT 10SM CLR M15/M21 A3079 RMK AO2 SLP455 T11501206 51016
KICT 161353Z 33013KT 10SM CLR M16/M21 A3078 RMK AO2 SLP453 T11611206 $
KICT 161253Z 34012KT 10SM CLR M16/M21 A3077 RMK AO2 SLP447 T11561206 $
KICT 161153Z 34014KT 10SM CLR M16/M20 A3074 RMK AO2 SLP438 70002 T11561200 11133 21156 58004 $
KICT 161053Z 34012KT 10SM CLR M16/M20 A3075 RMK AO2 SLP441 T11561200 $
KICT 160953Z 34012KT 10SM CLR M15/M19 A3075 RMK AO2 SLP440 T11501194 $
KICT 160853Z 33010KT 10SM CLR M15/M19 A3075 RMK AO2 SLP442 T11501194 53001 $
KICT 160753Z 33008KT 10SM FEW035 M15/M19 A3074 RMK AO2 SLP439 T11501189 $
KICT 160653Z 34008KT 10SM FEW033 FEW250 M14/M19 A3075 RMK AO2 SLP439 T11391189 $
KICT 160553Z 34012KT 10SM FEW250 M13/M19 A3075 RMK AO2 SLP440 T11331189 11100 21133 400721133 51010 $
KICT 160453Z 34011KT 10SM FEW250 M13/M18 A3074 RMK AO2 SLP436 T11331183 $
KICT 160353Z 33009KT 10SM SCT250 M13/M18 A3073 RMK AO2 SLP433 T11281183 $
KICT 160253Z 35009KT 10SM FEW250 M12/M18 A3072 RMK AO2 SLP427 T11221178 51028 $
KICT 160153Z 36012KT 10SM FEW250 M11/M16 A3070 RMK AO2 SLP416 T11111161 $
KICT 160053Z 36013G21KT 10SM BKN038 M10/M16 A3068 RMK AO2 SLP407 T11001161 $
KICT 152353Z 35019G24KT 10SM FEW030 SCT034 BKN130 M10/M17 A3063 RMK AO2 SLP391 T11001167 11083 21100 53017 $
KICT 152253Z 34014G21KT 10SM SCT029 SCT036 BKN130 BKN200 M09/M14 A3061 RMK AO2 SLP384 T10941144 $
KICT 152153Z 34018KT 10SM FEW030 BKN120 BKN200 M09/M15 A3060 RMK AO2 SLP378 T10891150 $
KICT 152053Z 34017KT 10SM SCT027 BKN110 M09/M14 A3058 RMK AO2 SLP371 T10891144 55002 $
KICT 151953Z 35017KT 10SM SCT025 OVC110 M09/M14 A3057 RMK AO2 PK WND 35026/1938 SLP369 T10941144 $
KICT 151853Z 35018G24KT 10SM SCT023 OVC110 M09/M14 A3057 RMK AO2 PK WND 35028/1756 SLP368 T10891144 $
KICT 151753Z 36022G28KT 10SM FEW016 SCT021 OVC085 M09/M13 A3059 RMK AO2 PK WND 36028/1655 SLP372 60002 T10891133 10006 21089 51036 $
KICT 151653Z 35021G29KT 10SM FEW015 OVC090 M08/M13 A3057 RMK AO2 PK WND 01029/1644 SLP366 T10781128 $
KICT 151553Z 36020G28KT 10SM FEW015 OVC065 M07/M12 A3053 RMK AO2 PK WND 35028/1550 SLP354 T10721122 $
KICT 151453Z 02018G27KT 10SM OVC055 M06/M10 A3048 RMK AO2 PK WND 01030/1419 SNEMMB16E25 SLP335 P0000 60002 T10561100 53047 $